createdAt,value
2019-05-05T00:01:07.655Z,3.55
2019-05-05T00:03:41.218Z,2.00
2019-05-05T00:06:10.154Z,3.37
2019-05-05T00:08:39.073Z,3.77
2019-05-05T00:11:12.645Z,2.02
2019-05-05T00:13:44.758Z,4.58
2019-05-05T00:16:20.381Z,3.55
2019-05-05T00:18:50.299Z,3.70
2019-05-05T00:21:20.308Z,3.80
2019-05-05T00:23:58.447Z,3.55
2019-05-05T00:26:38.250Z,3.52
2019-05-05T00:29:07.138Z,3.52
2019-05-05T00:31:36.176Z,2.90
2019-05-05T00:34:15.731Z,2.42
2019-05-05T00:36:44.748Z,3.58
2019-05-05T00:39:14.942Z,2.90
2019-05-05T00:41:44.877Z,3.05
2019-05-05T00:44:15.341Z,3.60
2019-05-05T00:46:55.210Z,3.65
2019-05-05T00:49:26.351Z,2.80
2019-05-05T00:51:55.584Z,4.05
2019-05-05T00:54:25.943Z,3.65
2019-05-05T00:56:54.945Z,3.15
2019-05-05T00:59:25.459Z,2.83
2019-05-05T01:02:12.509Z,3.47
2019-05-05T01:04:46.972Z,3.92
2019-05-05T01:07:16.006Z,3.27
2019-05-05T01:09:45.250Z,4.30
2019-05-05T01:12:15.059Z,3.77
2019-05-05T01:14:44.761Z,3.22
2019-05-05T01:17:14.700Z,3.20
2019-05-05T01:19:46.679Z,3.67
2019-05-05T01:22:14.534Z,4.00
2019-05-05T01:24:45.748Z,3.90
2019-05-05T01:27:14.719Z,4.10
2019-05-05T01:29:45.205Z,3.52
2019-05-05T01:32:15.877Z,3.75
2019-05-05T01:34:48.160Z,3.25
2019-05-05T01:37:28.714Z,4.00
2019-05-05T01:40:05.431Z,4.12
2019-05-05T01:42:35.268Z,4.30
2019-05-05T01:45:04.629Z,4.75
2019-05-05T01:47:34.713Z,4.35
2019-05-05T01:50:17.695Z,3.83
2019-05-05T01:52:35.844Z,5.22
2019-05-05T01:55:06.459Z,5.22
2019-05-05T01:57:35.444Z,4.17
2019-05-05T02:00:06.849Z,5.20
2019-05-05T02:02:35.778Z,5.45
2019-05-05T02:05:06.776Z,4.97
2019-05-05T02:07:35.815Z,4.40
2019-05-05T02:10:06.633Z,5.80
2019-05-05T02:12:37.171Z,5.90
2019-05-05T02:15:08.236Z,5.83
2019-05-05T02:17:37.178Z,4.67
2019-05-05T02:20:07.342Z,5.15
2019-05-05T02:22:37.266Z,5.37
2019-05-05T02:25:07.318Z,5.58
2019-05-05T02:27:37.182Z,5.75
2019-05-05T02:30:17.930Z,6.25
2019-05-05T02:32:48.397Z,5.50
2019-05-05T02:35:17.338Z,5.55
2019-05-05T02:37:46.499Z,4.72
2019-05-05T02:40:16.413Z,5.50
2019-05-05T02:42:46.639Z,4.97
2019-05-05T02:45:24.891Z,5.17
2019-05-05T02:48:06.009Z,6.00
2019-05-05T02:51:00.129Z,4.87
2019-05-05T02:53:25.418Z,5.20
2019-05-05T02:55:57.609Z,5.37
2019-05-05T02:58:28.481Z,5.90
2019-05-05T03:00:59.555Z,5.30
2019-05-05T03:03:29.317Z,5.53
2019-05-05T03:06:00.008Z,6.00
2019-05-05T03:08:29.755Z,5.05
2019-05-05T03:11:00.505Z,5.33
2019-05-05T03:13:33.712Z,4.30
2019-05-05T03:16:20.953Z,4.65
2019-05-05T03:18:50.958Z,4.65
2019-05-05T03:21:20.900Z,5.28
2019-05-05T03:23:50.308Z,4.78
2019-05-05T03:26:19.896Z,4.55
2019-05-05T03:28:54.745Z,4.97
2019-05-05T03:31:26.246Z,5.62
2019-05-05T03:33:55.748Z,5.95
2019-05-05T03:36:26.139Z,5.17
2019-05-05T03:38:56.115Z,5.87
2019-05-05T03:41:30.807Z,5.10
2019-05-05T03:44:04.846Z,5.35
2019-05-05T03:46:35.532Z,5.55
2019-05-05T03:49:05.004Z,4.78
2019-05-05T03:51:34.696Z,5.80
2019-05-05T03:54:04.540Z,5.90
2019-05-05T03:56:34.778Z,5.72
2019-05-05T03:59:05.095Z,5.55
2019-05-05T04:01:54.693Z,5.75
2019-05-05T04:04:28.385Z,5.47
2019-05-05T04:06:58.874Z,5.92
2019-05-05T04:09:27.996Z,4.67
2019-05-05T04:11:57.007Z,5.15
2019-05-05T04:14:25.910Z,5.12
2019-05-05T04:17:03.656Z,4.53
2019-05-05T04:19:34.325Z,4.80
2019-05-05T04:22:04.237Z,4.65
2019-05-05T04:24:34.862Z,4.85
2019-05-05T04:27:05.534Z,5.00
2019-05-05T04:29:34.666Z,5.20
2019-05-05T04:32:04.884Z,5.08
2019-05-05T04:34:34.752Z,4.33
2019-05-05T04:37:04.267Z,5.42
2019-05-05T04:39:34.334Z,5.65
2019-05-05T04:42:04.801Z,4.67
2019-05-05T04:44:34.808Z,4.75
2019-05-05T04:47:11.249Z,4.65
2019-05-05T04:52:17.851Z,4.80
2019-05-05T04:54:48.387Z,4.65
2019-05-05T04:57:17.312Z,4.40
2019-05-05T04:59:47.695Z,4.17
2019-05-05T05:02:34.580Z,4.62
2019-05-05T05:05:08.041Z,4.67
2019-05-05T05:07:36.983Z,5.20
2019-05-05T05:10:07.691Z,5.22
2019-05-05T05:12:36.589Z,4.65
2019-05-05T05:15:06.325Z,4.90
2019-05-05T05:17:44.268Z,4.50
2019-05-05T05:20:14.201Z,4.55
2019-05-05T05:22:43.966Z,4.40
2019-05-05T05:25:13.571Z,4.35
2019-05-05T05:27:44.321Z,4.28
2019-05-05T05:30:13.870Z,4.55
2019-05-05T05:32:44.549Z,4.40
2019-05-05T05:35:14.237Z,4.15
2019-05-05T05:37:44.821Z,4.17
2019-05-05T05:40:15.638Z,3.62
2019-05-05T05:42:44.544Z,3.92
2019-05-05T05:45:15.011Z,3.83
2019-05-05T05:48:04.095Z,3.47
2019-05-05T05:50:34.933Z,4.55
2019-05-05T05:53:04.738Z,4.87
2019-05-05T05:55:34.363Z,4.83
2019-05-05T05:58:04.858Z,3.83
2019-05-05T06:00:34.490Z,4.37
2019-05-05T06:03:03.958Z,3.77
2019-05-05T06:05:34.432Z,4.35
2019-05-05T06:08:04.722Z,5.10
2019-05-05T06:10:34.058Z,4.37
2019-05-05T06:13:04.125Z,4.00
2019-05-05T06:15:33.885Z,4.03
2019-05-05T06:18:04.660Z,4.35
2019-05-05T06:20:34.392Z,4.20
2019-05-05T06:23:04.044Z,4.70
2019-05-05T06:25:34.185Z,4.30
2019-05-05T06:28:04.211Z,4.40
2019-05-05T06:30:33.772Z,3.90
2019-05-05T06:33:04.746Z,4.37
2019-05-05T06:35:33.790Z,3.65
2019-05-05T06:38:04.634Z,3.50
2019-05-05T06:40:50.251Z,3.85
2019-05-05T06:43:34.788Z,4.00
2019-05-05T06:46:20.250Z,3.62
2019-05-05T06:48:49.222Z,3.67
2019-05-05T06:51:19.093Z,4.05
2019-05-05T06:53:47.988Z,4.45
2019-05-05T06:56:16.936Z,3.92
2019-05-05T06:58:45.885Z,3.70
2019-05-05T07:01:14.894Z,2.92
2019-05-05T07:03:43.975Z,3.58
2019-05-05T07:06:14.616Z,3.02
2019-05-05T07:08:43.976Z,2.70
2019-05-05T07:11:14.558Z,3.60
2019-05-05T07:13:44.318Z,2.92
2019-05-05T07:16:14.905Z,2.95
2019-05-05T07:18:44.591Z,2.67
2019-05-05T07:21:14.271Z,3.17
2019-05-05T07:23:44.527Z,4.05
2019-05-05T07:26:14.352Z,3.10
2019-05-05T07:28:45.040Z,2.58
2019-05-05T07:31:14.322Z,2.72
2019-05-05T07:33:43.866Z,3.10
2019-05-05T07:36:30.893Z,3.02
2019-05-05T07:38:59.794Z,2.83
2019-05-05T07:41:28.794Z,2.50
2019-05-05T07:43:57.749Z,2.50
2019-05-05T07:46:26.655Z,2.60
2019-05-05T07:48:55.548Z,2.55
2019-05-05T07:51:24.711Z,2.37
2019-05-05T07:53:54.888Z,2.87
2019-05-05T07:56:25.239Z,3.17
2019-05-05T07:58:54.451Z,2.77
2019-05-05T08:01:24.473Z,2.45
2019-05-05T08:03:53.946Z,2.52
2019-05-05T08:06:23.707Z,3.20
2019-05-05T08:08:54.558Z,2.92
2019-05-05T08:11:23.848Z,2.52
2019-05-05T08:13:54.610Z,2.95
2019-05-05T08:16:37.487Z,2.95
2019-05-05T08:19:25.257Z,2.83
2019-05-05T08:21:54.308Z,2.47
2019-05-05T08:24:40.964Z,2.25
2019-05-05T08:27:17.275Z,2.58
2019-05-05T08:32:32.762Z,2.10
2019-05-05T08:35:01.343Z,2.08
2019-05-05T08:37:30.472Z,2.33
2019-05-05T08:39:59.431Z,2.10
2019-05-05T08:42:28.346Z,2.20
2019-05-05T08:44:57.235Z,1.90
2019-05-05T08:47:28.209Z,2.20
2019-05-05T08:49:56.758Z,1.90
2019-05-05T08:52:25.666Z,2.22
2019-05-05T08:54:54.622Z,1.80
2019-05-05T08:57:23.721Z,1.95
2019-05-05T08:59:54.500Z,2.25
2019-05-05T09:02:23.889Z,2.20
2019-05-05T09:04:53.803Z,1.90
2019-05-05T09:07:24.344Z,2.42
2019-05-05T09:09:54.640Z,1.95
2019-05-05T09:12:23.797Z,2.12
2019-05-05T09:14:53.866Z,1.87
2019-05-05T09:17:24.368Z,1.90
2019-05-05T09:19:53.801Z,2.12
2019-05-05T09:22:24.568Z,1.75
2019-05-05T09:25:04.381Z,1.90
2019-05-05T09:27:34.928Z,2.17
2019-05-05T09:30:04.971Z,1.90
2019-05-05T09:32:34.408Z,1.90
2019-05-05T09:35:04.778Z,1.60
2019-05-05T09:37:34.081Z,1.72
2019-05-05T09:40:04.500Z,1.77
2019-05-05T09:42:34.212Z,1.72
2019-05-05T09:45:04.783Z,1.95
2019-05-05T09:47:34.398Z,1.82
2019-05-05T09:50:04.398Z,1.80
2019-05-05T09:52:34.348Z,1.50
2019-05-05T09:55:03.925Z,1.65
2019-05-05T09:57:34.388Z,1.70
2019-05-05T10:00:08.279Z,1.50
2019-05-05T10:02:39.456Z,1.70
2019-05-05T10:05:09.075Z,1.85
2019-05-05T10:07:38.191Z,1.40
2019-05-05T10:10:07.752Z,1.57
2019-05-05T10:12:36.641Z,1.67
2019-05-05T10:15:07.792Z,1.92
2019-05-05T10:17:36.860Z,1.80
2019-05-05T10:20:07.115Z,1.60
2019-05-05T10:22:36.361Z,1.62
2019-05-05T10:25:26.172Z,1.50
2019-05-05T10:27:55.530Z,1.65
2019-05-05T10:30:24.458Z,1.75
2019-05-05T10:32:54.566Z,1.50
2019-05-05T10:35:23.942Z,1.40
2019-05-05T10:37:54.491Z,1.50
2019-05-05T10:40:25.201Z,1.60
2019-05-05T10:42:54.204Z,1.32
2019-05-05T10:45:24.448Z,1.52
2019-05-05T10:47:54.116Z,1.55
2019-05-05T10:50:24.667Z,1.40
2019-05-05T10:52:54.014Z,1.35
2019-05-05T10:55:24.039Z,1.57
2019-05-05T10:57:54.298Z,1.25
2019-05-05T11:00:47.134Z,1.37
2019-05-05T11:03:16.334Z,1.47
2019-05-05T11:05:46.915Z,1.20
2019-05-05T11:08:15.962Z,1.50
2019-05-05T11:10:45.286Z,1.72
2019-05-05T11:13:14.474Z,1.45
2019-05-05T11:15:44.393Z,1.35
2019-05-05T11:18:14.790Z,1.82
2019-05-05T11:20:44.901Z,1.45
2019-05-05T11:23:15.075Z,1.40
2019-05-05T11:25:44.458Z,1.55
2019-05-05T11:28:13.782Z,1.30
2019-05-05T11:30:45.712Z,1.30
2019-05-05T11:33:34.793Z,1.30
2019-05-05T11:36:08.128Z,1.50
2019-05-05T11:38:37.074Z,1.50
2019-05-05T11:41:06.001Z,1.72
2019-05-05T11:43:34.904Z,1.37
2019-05-05T11:46:03.974Z,1.32
2019-05-05T11:48:34.483Z,1.55
2019-05-05T11:51:04.478Z,1.70
2019-05-05T11:53:34.095Z,1.65
2019-05-05T11:56:04.199Z,1.75
2019-05-05T11:58:34.057Z,1.37
2019-05-05T12:01:03.710Z,1.98
2019-05-05T12:03:33.962Z,1.55
2019-05-05T12:06:04.038Z,1.30
2019-05-05T12:08:34.509Z,1.42
2019-05-05T12:11:04.916Z,1.15
2019-05-05T12:13:33.818Z,1.15
2019-05-05T12:16:04.789Z,1.12
2019-05-05T12:18:34.441Z,1.50
2019-05-05T12:21:05.141Z,1.60
2019-05-05T12:23:34.262Z,1.60
2019-05-05T12:26:16.911Z,1.30
2019-05-05T12:28:50.658Z,1.52
2019-05-05T12:31:27.111Z,1.55
2019-05-05T12:33:57.612Z,1.60
2019-05-05T12:36:26.523Z,1.92
2019-05-05T12:38:55.428Z,1.70
2019-05-05T12:41:24.386Z,1.40
2019-05-05T12:43:54.887Z,1.35
2019-05-05T12:46:34.441Z,2.15
2019-05-05T12:49:05.045Z,1.57
2019-05-05T12:51:34.348Z,1.87
2019-05-05T12:54:04.478Z,1.72
2019-05-05T12:56:34.096Z,1.82
2019-05-05T12:59:04.795Z,1.62
2019-05-05T13:01:37.977Z,1.65
2019-05-05T13:04:06.920Z,1.80
2019-05-05T13:06:35.857Z,1.62
2019-05-05T13:09:07.305Z,1.37
2019-05-05T13:11:36.689Z,1.50
2019-05-05T13:14:05.994Z,1.40
2019-05-05T13:16:34.955Z,1.40
2019-05-05T13:19:05.561Z,1.60
2019-05-05T13:21:44.806Z,1.50
2019-05-05T13:24:24.123Z,1.30
2019-05-05T13:26:54.643Z,1.35
2019-05-05T13:29:24.588Z,1.65
2019-05-05T13:31:54.430Z,1.50
2019-05-05T13:34:23.526Z,1.62
2019-05-05T13:36:52.422Z,1.85
2019-05-05T13:39:21.443Z,2.05
2019-05-05T13:41:50.410Z,1.52
2019-05-05T13:44:20.872Z,1.98
2019-05-05T13:46:49.800Z,1.50
2019-05-05T13:49:20.360Z,1.60
2019-05-05T13:51:49.288Z,1.65
2019-05-05T13:54:18.176Z,1.65
2019-05-05T13:56:47.230Z,1.50
2019-05-05T13:59:16.146Z,1.60
2019-05-05T14:01:45.050Z,1.82
2019-05-05T14:04:14.003Z,1.52
2019-05-05T14:06:44.466Z,2.00
2019-05-05T14:09:13.951Z,1.90
2019-05-05T14:11:44.533Z,1.90
2019-05-05T14:14:13.896Z,1.60
2019-05-05T14:16:44.683Z,1.50
2019-05-05T14:19:14.631Z,1.65
2019-05-05T14:21:44.545Z,1.60
2019-05-05T14:24:18.039Z,1.60
2019-05-05T14:26:46.971Z,1.72
2019-05-05T14:29:17.493Z,2.10
2019-05-05T14:31:46.407Z,1.82
2019-05-05T14:34:16.876Z,1.65
2019-05-05T14:36:47.463Z,1.77
2019-05-05T14:39:17.982Z,2.00
2019-05-05T14:41:46.904Z,1.57
2019-05-05T14:44:15.841Z,1.60
2019-05-05T14:46:44.786Z,1.45
2019-05-05T14:49:14.038Z,1.50
2019-05-05T14:51:44.656Z,1.57
2019-05-05T14:54:14.858Z,1.47
2019-05-05T14:56:44.159Z,1.55
2019-05-05T14:59:14.262Z,1.40
2019-05-05T15:01:44.718Z,2.17
2019-05-05T15:04:15.454Z,1.30
2019-05-05T15:06:48.617Z,1.10
2019-05-05T15:09:19.161Z,1.50
2019-05-05T15:11:58.428Z,1.40
2019-05-05T15:14:27.373Z,1.47
2019-05-05T15:16:56.287Z,1.77
2019-05-05T15:19:25.186Z,1.30
2019-05-05T15:21:54.151Z,1.32
2019-05-05T15:24:24.443Z,1.07
2019-05-05T15:26:54.997Z,1.20
2019-05-05T15:29:25.178Z,1.40
2019-05-05T15:31:54.299Z,1.02
2019-05-05T15:34:24.064Z,1.35
2019-05-05T15:36:54.699Z,1.50
2019-05-05T15:39:24.601Z,1.67
2019-05-05T15:41:54.228Z,1.30
2019-05-05T15:44:24.084Z,1.60
2019-05-05T15:46:57.601Z,1.27
2019-05-05T15:49:24.017Z,1.20
2019-05-05T15:51:53.930Z,1.50
2019-05-05T15:54:23.664Z,1.35
2019-05-05T15:57:04.966Z,1.47
2019-05-05T15:59:23.857Z,1.62
2019-05-05T16:01:54.740Z,1.27
2019-05-05T16:04:23.756Z,1.17
2019-05-05T16:06:54.053Z,1.10
2019-05-05T16:09:23.183Z,1.02
2019-05-05T16:11:54.411Z,0.95
2019-05-05T16:14:25.655Z,1.25
2019-05-05T16:16:56.198Z,1.10
2019-05-05T16:19:28.076Z,1.00
2019-05-05T16:21:58.752Z,1.25
2019-05-05T16:24:29.247Z,1.30
2019-05-05T16:26:58.193Z,1.10
2019-05-05T16:29:27.109Z,1.10
2019-05-05T16:31:56.009Z,1.25
2019-05-05T16:34:24.958Z,1.00
2019-05-05T16:36:54.563Z,0.90
2019-05-05T16:39:25.685Z,0.88
2019-05-05T16:41:54.794Z,0.90
2019-05-05T16:44:23.698Z,0.90
2019-05-05T16:46:53.984Z,1.00
2019-05-05T16:49:23.073Z,1.20
2019-05-05T16:51:54.500Z,0.72
2019-05-05T16:54:25.156Z,1.07
2019-05-05T16:56:54.056Z,1.00
2019-05-05T16:59:23.745Z,0.85
2019-05-05T17:01:54.110Z,0.90
2019-05-05T17:04:24.324Z,1.05
2019-05-05T17:06:54.700Z,0.90
2019-05-05T17:09:24.150Z,1.20
2019-05-05T17:12:11.319Z,1.20
2019-05-05T17:14:44.427Z,1.22
2019-05-05T17:17:31.156Z,1.30
2019-05-05T17:20:04.788Z,1.15
2019-05-05T17:22:35.323Z,1.15
2019-05-05T17:25:04.904Z,1.70
2019-05-05T17:27:47.020Z,1.27
2019-05-05T17:30:06.102Z,1.20
2019-05-05T17:32:35.006Z,1.47
2019-05-05T17:35:04.011Z,1.50
2019-05-05T17:37:33.565Z,1.70
2019-05-05T17:40:20.439Z,1.75
2019-05-05T17:42:58.171Z,2.15
2019-05-05T17:45:31.444Z,1.27
2019-05-05T17:48:07.702Z,1.45
2019-05-05T17:50:56.043Z,1.57
2019-05-05T17:53:29.272Z,1.55
2019-05-05T17:55:59.741Z,2.08
2019-05-05T17:58:28.767Z,2.08
2019-05-05T18:00:59.233Z,1.60
2019-05-05T18:03:28.122Z,1.42
2019-05-05T18:05:58.636Z,1.50
2019-05-05T18:08:41.254Z,2.35
2019-05-05T18:11:13.518Z,1.27
2019-05-05T18:14:00.135Z,1.32
2019-05-05T18:16:30.223Z,1.20
2019-05-05T18:18:59.128Z,1.62
2019-05-05T18:21:31.736Z,1.70
2019-05-05T18:23:58.917Z,1.57
2019-05-05T18:26:27.801Z,1.60
2019-05-05T18:28:56.696Z,1.62
2019-05-05T18:31:25.670Z,1.30
2019-05-05T18:33:54.563Z,2.45
2019-05-05T18:36:23.476Z,1.30
2019-05-05T18:38:53.880Z,1.52
2019-05-05T18:41:27.460Z,1.05
2019-05-05T18:43:57.990Z,1.17
2019-05-05T18:46:26.944Z,1.65
2019-05-05T18:48:55.903Z,1.47
2019-05-05T18:51:24.843Z,1.80
2019-05-05T18:53:55.012Z,1.90
2019-05-05T18:56:24.056Z,1.10
2019-05-05T18:58:54.306Z,1.30
2019-05-05T19:01:27.527Z,0.80
2019-05-05T19:04:04.379Z,1.10
2019-05-05T19:06:40.711Z,0.90
2019-05-05T19:09:11.217Z,1.12
2019-05-05T19:11:41.038Z,1.07
2019-05-05T19:14:09.974Z,0.90
2019-05-05T19:16:38.997Z,1.32
2019-05-05T19:19:07.884Z,1.32
2019-05-05T19:21:38.400Z,1.10
2019-05-05T19:24:07.358Z,1.35
2019-05-05T19:26:36.262Z,2.20
2019-05-05T19:29:05.244Z,1.47
2019-05-05T19:31:36.342Z,1.50
2019-05-05T19:34:04.873Z,1.87
2019-05-05T19:36:34.286Z,1.65
2019-05-05T19:39:04.121Z,1.92
2019-05-05T19:41:34.822Z,2.20
2019-05-05T19:44:04.827Z,1.40
2019-05-05T19:46:51.845Z,1.90
2019-05-05T19:49:20.809Z,1.47
2019-05-05T19:51:50.669Z,1.40
2019-05-05T19:54:19.572Z,1.45
2019-05-05T19:56:48.512Z,1.75
2019-05-05T19:59:17.462Z,1.98
2019-05-05T20:01:46.337Z,1.90
2019-05-05T20:04:15.265Z,1.98
2019-05-05T20:06:44.482Z,1.72
2019-05-05T20:09:14.198Z,1.70
2019-05-05T20:11:43.920Z,2.10
2019-05-05T20:14:15.131Z,2.20
2019-05-05T20:17:04.261Z,1.40
2019-05-05T20:19:35.494Z,1.47
2019-05-05T20:22:04.621Z,1.37
2019-05-05T20:24:33.761Z,2.27
2019-05-05T20:27:04.614Z,1.65
2019-05-05T20:29:37.051Z,2.08
2019-05-05T20:32:04.433Z,1.82
2019-05-05T20:34:51.377Z,2.15
2019-05-05T20:39:50.967Z,2.30
2019-05-05T20:42:19.904Z,1.60
2019-05-05T20:44:48.803Z,2.35
2019-05-05T20:47:17.706Z,1.90
2019-05-05T20:49:46.699Z,2.52
2019-05-05T20:52:15.636Z,1.87
2019-05-05T20:54:44.536Z,2.52
2019-05-05T20:57:13.486Z,2.00
2019-05-05T20:59:44.378Z,2.27
2019-05-05T21:02:13.677Z,2.10
2019-05-05T21:04:44.593Z,1.85
2019-05-05T21:07:14.031Z,2.60
2019-05-05T21:09:43.177Z,2.58
2019-05-05T21:12:13.833Z,2.67
2019-05-05T21:14:44.618Z,2.37
2019-05-05T21:17:15.540Z,2.95
2019-05-05T21:19:44.504Z,3.10
2019-05-05T21:22:27.043Z,2.05
2019-05-05T21:24:56.948Z,2.70
2019-05-05T21:27:25.848Z,1.95
2019-05-05T21:29:54.784Z,2.37
2019-05-05T21:32:25.389Z,2.90
2019-05-05T21:34:54.431Z,2.58
2019-05-05T21:37:24.876Z,2.15
2019-05-05T21:39:55.215Z,2.85
2019-05-05T21:42:24.425Z,2.45
2019-05-05T21:44:54.304Z,2.70
2019-05-05T21:47:23.984Z,1.82
2019-05-05T21:49:54.270Z,2.05
2019-05-05T21:52:32.100Z,1.85
2019-05-05T21:55:04.216Z,2.42
2019-05-05T21:57:34.848Z,2.08
2019-05-05T22:00:06.906Z,2.47
2019-05-05T22:02:35.816Z,2.75
2019-05-05T22:05:06.445Z,2.15
2019-05-05T22:07:35.393Z,2.75
2019-05-05T22:10:05.248Z,2.98
2019-05-05T22:12:36.370Z,2.67
2019-05-05T22:15:06.029Z,3.15
2019-05-05T22:17:36.496Z,2.10
2019-05-05T22:20:14.324Z,2.22
2019-05-05T22:22:46.512Z,2.22
2019-05-05T22:25:15.501Z,2.22
2019-05-05T22:27:44.436Z,2.40
2019-05-05T22:30:14.260Z,1.62
2019-05-05T22:32:44.091Z,2.22
2019-05-05T22:35:14.013Z,1.98
2019-05-05T22:37:44.149Z,2.95
2019-05-05T22:40:24.386Z,2.22
2019-05-05T22:42:54.663Z,1.98
2019-05-05T22:45:23.945Z,2.05
2019-05-05T22:47:54.309Z,2.17
2019-05-05T22:50:24.674Z,2.30
2019-05-05T22:52:54.497Z,2.70
2019-05-05T22:55:24.751Z,2.83
2019-05-05T22:57:54.382Z,2.90
2019-05-05T23:00:29.236Z,2.60
2019-05-05T23:02:59.244Z,2.37
2019-05-05T23:05:44.864Z,1.30
2019-05-05T23:08:18.012Z,2.30
2019-05-05T23:10:45.388Z,1.85
2019-05-05T23:13:14.341Z,2.47
2019-05-05T23:15:44.800Z,2.20
2019-05-05T23:18:18.084Z,2.45
2019-05-05T23:21:07.287Z,2.33
2019-05-05T23:23:56.031Z,2.15
2019-05-05T23:26:27.776Z,2.95
2019-05-05T23:28:56.724Z,2.87
2019-05-05T23:31:25.632Z,2.65
2019-05-05T23:33:54.950Z,2.52
2019-05-05T23:36:24.297Z,2.67
2019-05-05T23:38:54.914Z,2.65
2019-05-05T23:41:24.129Z,2.37
2019-05-05T23:43:54.475Z,2.65
2019-05-05T23:46:24.119Z,2.47
2019-05-05T23:48:53.796Z,2.45
2019-05-05T23:51:24.245Z,2.40
2019-05-05T23:53:55.024Z,1.90
2019-05-05T23:56:24.157Z,2.62
2019-05-05T23:58:54.928Z,2.45
